sensor_id;sensor_type;location;lat;lon;timestamp;pressure;altitude;pressure_sealevel;temperature;humidity
68988;BME280;56038;46.080;11.116;2023-04-08T00:03:24;99318.78;;;10.14;41.50
68988;BME280;56038;46.080;11.116;2023-04-08T00:08:25;99315.84;;;10.00;41.83
68988;BME280;56038;46.080;11.116;2023-04-08T00:13:29;99316.84;;;9.97;41.82
68988;BME280;56038;46.080;11.116;2023-04-08T00:18:30;99316.72;;;10.00;41.89
68988;BME280;56038;46.080;11.116;2023-04-08T00:23:32;99315.34;;;9.90;42.61
68988;BME280;56038;46.080;11.116;2023-04-08T00:28:36;99306.25;;;9.78;42.79
68988;BME280;56038;46.080;11.116;2023-04-08T00:33:38;99305.44;;;9.76;42.62
68988;BME280;56038;46.080;11.116;2023-04-08T00:38:39;99297.06;;;9.68;42.56
68988;BME280;56038;46.080;11.116;2023-04-08T00:43:43;99295.59;;;9.61;42.78
68988;BME280;56038;46.080;11.116;2023-04-08T00:48:45;99285.91;;;9.65;42.95
68988;BME280;56038;46.080;11.116;2023-04-08T00:53:47;99287.94;;;9.56;44.15
68988;BME280;56038;46.080;11.116;2023-04-08T00:58:50;99287.25;;;9.51;42.91
68988;BME280;56038;46.080;11.116;2023-04-08T01:03:56;99279.84;;;9.41;46.58
68988;BME280;56038;46.080;11.116;2023-04-08T01:08:59;99301.03;;;9.32;44.40
68988;BME280;56038;46.080;11.116;2023-04-08T01:14:04;99295.53;;;9.16;44.57
68988;BME280;56038;46.080;11.116;2023-04-08T01:19:07;99288.06;;;9.05;45.23
68988;BME280;56038;46.080;11.116;2023-04-08T01:24:18;99290.13;;;8.95;46.34
68988;BME280;56038;46.080;11.116;2023-04-08T01:29:23;99301.56;;;8.91;45.97
68988;BME280;56038;46.080;11.116;2023-04-08T01:34:25;99290.53;;;8.85;45.92
68988;BME280;56038;46.080;11.116;2023-04-08T01:39:28;99294.06;;;8.82;45.95
68988;BME280;56038;46.080;11.116;2023-04-08T01:44:32;99290.00;;;8.75;46.74
68988;BME280;56038;46.080;11.116;2023-04-08T01:49:36;99295.50;;;8.66;47.06
68988;BME280;56038;46.080;11.116;2023-04-08T01:54:38;99288.59;;;8.65;46.94
68988;BME280;56038;46.080;11.116;2023-04-08T01:59:42;99292.94;;;8.64;46.77
68988;BME280;56038;46.080;11.116;2023-04-08T02:04:47;99284.34;;;8.62;47.15
68988;BME280;56038;46.080;11.116;2023-04-08T02:09:55;99292.19;;;8.61;47.64
68988;BME280;56038;46.080;11.116;2023-04-08T02:15:10;99290.22;;;8.69;48.33
68988;BME280;56038;46.080;11.116;2023-04-08T02:20:27;99293.22;;;8.82;47.21
68988;BME280;56038;46.080;11.116;2023-04-08T02:25:44;99291.47;;;8.82;48.05
68988;BME280;56038;46.080;11.116;2023-04-08T02:31:01;99296.47;;;8.88;47.62
68988;BME280;56038;46.080;11.116;2023-04-08T02:36:14;99297.28;;;8.90;47.44
68988;BME280;56038;46.080;11.116;2023-04-08T02:41:32;99291.16;;;8.91;48.72
68988;BME280;56038;46.080;11.116;2023-04-08T02:46:47;99284.25;;;8.90;48.42
68988;BME280;56038;46.080;11.116;2023-04-08T02:51:53;99286.97;;;8.87;47.62
68988;BME280;56038;46.080;11.116;2023-04-08T02:56:55;99282.59;;;8.88;47.77
68988;BME280;56038;46.080;11.116;2023-04-08T03:01:58;99284.66;;;8.78;48.18
68988;BME280;56038;46.080;11.116;2023-04-08T03:07:05;99287.31;;;8.77;48.91
68988;BME280;56038;46.080;11.116;2023-04-08T03:12:16;99277.59;;;8.82;48.31
68988;BME280;56038;46.080;11.116;2023-04-08T03:17:31;99269.84;;;8.80;49.36
68988;BME280;56038;46.080;11.116;2023-04-08T03:22:43;99270.84;;;8.76;49.18
68988;BME280;56038;46.080;11.116;2023-04-08T03:27:48;99277.94;;;8.73;49.55
68988;BME280;56038;46.080;11.116;2023-04-08T03:32:52;99285.06;;;8.66;49.68
68988;BME280;56038;46.080;11.116;2023-04-08T03:37:53;99281.56;;;8.67;49.74
68988;BME280;56038;46.080;11.116;2023-04-08T03:42:55;99285.97;;;8.65;49.78
68988;BME280;56038;46.080;11.116;2023-04-08T03:47:58;99275.63;;;8.63;49.58
68988;BME280;56038;46.080;11.116;2023-04-08T03:53:00;99284.38;;;8.61;49.50
68988;BME280;56038;46.080;11.116;2023-04-08T03:58:02;99291.47;;;8.57;49.67
68988;BME280;56038;46.080;11.116;2023-04-08T04:03:05;99289.16;;;8.48;50.27
68988;BME280;56038;46.080;11.116;2023-04-08T04:08:09;99297.91;;;8.46;53.95
68988;BME280;56038;46.080;11.116;2023-04-08T04:13:11;99309.19;;;8.46;50.13
68988;BME280;56038;46.080;11.116;2023-04-08T04:18:14;99303.13;;;8.46;49.98
68988;BME280;56038;46.080;11.116;2023-04-08T04:23:16;99304.94;;;8.44;50.69
68988;BME280;56038;46.080;11.116;2023-04-08T04:28:18;99311.94;;;8.42;51.13
68988;BME280;56038;46.080;11.116;2023-04-08T04:33:21;99318.09;;;8.39;51.55
68988;BME280;56038;46.080;11.116;2023-04-08T04:38:23;99310.59;;;8.28;51.54
68988;BME280;56038;46.080;11.116;2023-04-08T04:43:25;99316.69;;;8.27;51.35
68988;BME280;56038;46.080;11.116;2023-04-08T04:48:28;99323.94;;;8.18;51.53
68988;BME280;56038;46.080;11.116;2023-04-08T04:53:30;99318.59;;;8.22;51.56
68988;BME280;56038;46.080;11.116;2023-04-08T04:58:32;99323.44;;;8.33;50.79
68988;BME280;56038;46.080;11.116;2023-04-08T05:03:35;99329.31;;;8.41;51.15
68988;BME280;56038;46.080;11.116;2023-04-08T05:08:37;99330.09;;;8.43;51.66
68988;BME280;56038;46.080;11.116;2023-04-08T05:13:38;99333.44;;;8.47;51.52
68988;BME280;56038;46.080;11.116;2023-04-08T05:18:42;99346.94;;;8.59;51.26
68988;BME280;56038;46.080;11.116;2023-04-08T05:23:44;99347.66;;;8.63;51.08
68988;BME280;56038;46.080;11.116;2023-04-08T05:28:47;99353.09;;;8.57;51.08
68988;BME280;56038;46.080;11.116;2023-04-08T05:33:50;99358.31;;;8.57;51.39
68988;BME280;56038;46.080;11.116;2023-04-08T05:38:53;99358.84;;;8.66;50.78
68988;BME280;56038;46.080;11.116;2023-04-08T05:43:55;99363.81;;;8.74;51.42
68988;BME280;56038;46.080;11.116;2023-04-08T05:48:58;99367.22;;;8.76;51.13
68988;BME280;56038;46.080;11.116;2023-04-08T05:54:00;99369.59;;;9.09;51.35
68988;BME280;56038;46.080;11.116;2023-04-08T05:59:01;99374.00;;;9.07;50.74
68988;BME280;56038;46.080;11.116;2023-04-08T06:04:05;99373.47;;;9.22;50.73
68988;BME280;56038;46.080;11.116;2023-04-08T06:09:06;99382.88;;;9.51;51.11
68988;BME280;56038;46.080;11.116;2023-04-08T06:14:09;99379.19;;;9.56;50.77
68988;BME280;56038;46.080;11.116;2023-04-08T06:19:12;99378.47;;;9.53;50.24
68988;BME280;56038;46.080;11.116;2023-04-08T06:24:14;99371.19;;;9.61;50.19
68988;BME280;56038;46.080;11.116;2023-04-08T06:29:16;99376.22;;;9.67;50.33
68988;BME280;56038;46.080;11.116;2023-04-08T06:34:19;99373.72;;;9.87;50.25
68988;BME280;56038;46.080;11.116;2023-04-08T06:39:20;99371.56;;;9.99;50.06
68988;BME280;56038;46.080;11.116;2023-04-08T06:44:22;99372.28;;;10.02;49.87
68988;BME280;56038;46.080;11.116;2023-04-08T06:49:26;99368.66;;;10.06;49.70
68988;BME280;56038;46.080;11.116;2023-04-08T06:54:27;99375.56;;;10.07;49.85
68988;BME280;56038;46.080;11.116;2023-04-08T06:59:29;99380.75;;;9.85;51.32
68988;BME280;56038;46.080;11.116;2023-04-08T07:04:32;99355.13;;;9.97;50.70
68988;BME280;56038;46.080;11.116;2023-04-08T07:09:34;99354.06;;;10.24;50.78
68988;BME280;56038;46.080;11.116;2023-04-08T07:14:36;99344.56;;;10.45;49.96
68988;BME280;56038;46.080;11.116;2023-04-08T07:19:40;99352.19;;;10.71;49.10
68988;BME280;56038;46.080;11.116;2023-04-08T07:24:43;99350.25;;;10.97;47.81
68988;BME280;56038;46.080;11.116;2023-04-08T07:29:51;99351.44;;;11.30;47.78
68988;BME280;56038;46.080;11.116;2023-04-08T07:34:55;99346.38;;;11.46;46.93
68988;BME280;56038;46.080;11.116;2023-04-08T07:39:56;99341.84;;;11.70;45.50
68988;BME280;56038;46.080;11.116;2023-04-08T07:44:58;99346.03;;;11.93;45.50
68988;BME280;56038;46.080;11.116;2023-04-08T07:50:01;99343.56;;;12.09;45.28
68988;BME280;56038;46.080;11.116;2023-04-08T07:55:04;99345.88;;;11.96;45.17
68988;BME280;56038;46.080;11.116;2023-04-08T08:00:08;99338.81;;;12.17;44.64
68988;BME280;56038;46.080;11.116;2023-04-08T08:05:11;99328.41;;;12.34;43.65
68988;BME280;56038;46.080;11.116;2023-04-08T08:10:12;99324.59;;;12.04;43.03
68988;BME280;56038;46.080;11.116;2023-04-08T08:15:14;99327.16;;;12.05;43.97
68988;BME280;56038;46.080;11.116;2023-04-08T08:20:17;99314.69;;;12.46;42.96
68988;BME280;56038;46.080;11.116;2023-04-08T08:25:19;99319.75;;;12.68;42.30
68988;BME280;56038;46.080;11.116;2023-04-08T08:30:21;99310.41;;;12.97;41.78
68988;BME280;56038;46.080;11.116;2023-04-08T08:35:24;99307.19;;;13.27;41.36
68988;BME280;56038;46.080;11.116;2023-04-08T08:40:26;99303.28;;;13.34;41.06
68988;BME280;56038;46.080;11.116;2023-04-08T08:45:32;99305.22;;;13.63;40.94
68988;BME280;56038;46.080;11.116;2023-04-08T08:50:35;99300.50;;;13.86;40.47
68988;BME280;56038;46.080;11.116;2023-04-08T08:55:37;99301.34;;;14.18;40.10
68988;BME280;56038;46.080;11.116;2023-04-08T09:00:40;99285.31;;;14.54;39.67
68988;BME280;56038;46.080;11.116;2023-04-08T09:05:49;99288.94;;;14.81;38.80
68988;BME280;56038;46.080;11.116;2023-04-08T09:10:51;99281.03;;;15.25;38.29
68988;BME280;56038;46.080;11.116;2023-04-08T09:16:01;99273.06;;;15.55;36.39
68988;BME280;56038;46.080;11.116;2023-04-08T09:21:06;99272.13;;;15.28;37.58
68988;BME280;56038;46.080;11.116;2023-04-08T09:26:08;99272.84;;;15.87;36.88
68988;BME280;56038;46.080;11.116;2023-04-08T09:31:21;99256.91;;;16.03;35.18
68988;BME280;56038;46.080;11.116;2023-04-08T09:36:25;99246.06;;;16.61;35.13
68988;BME280;56038;46.080;11.116;2023-04-08T09:41:27;99253.41;;;17.21;34.50
68988;BME280;56038;46.080;11.116;2023-04-08T09:46:32;99239.34;;;17.95;33.45
68988;BME280;56038;46.080;11.116;2023-04-08T09:51:44;99239.75;;;17.53;32.50
68988;BME280;56038;46.080;11.116;2023-04-08T09:56:57;99225.91;;;17.49;31.69
68988;BME280;56038;46.080;11.116;2023-04-08T10:02:06;99223.75;;;18.27;31.80
68988;BME280;56038;46.080;11.116;2023-04-08T10:07:13;99220.38;;;18.84;29.74
68988;BME280;56038;46.080;11.116;2023-04-08T10:12:15;99213.31;;;19.07;30.81
68988;BME280;56038;46.080;11.116;2023-04-08T10:17:24;99213.19;;;18.98;29.18
68988;BME280;56038;46.080;11.116;2023-04-08T10:22:46;99211.50;;;19.08;27.36
68988;BME280;56038;46.080;11.116;2023-04-08T10:27:49;99206.34;;;18.95;29.82
68988;BME280;56038;46.080;11.116;2023-04-08T10:32:50;99197.91;;;19.46;29.55
68988;BME280;56038;46.080;11.116;2023-04-08T10:37:54;99184.75;;;20.21;28.52
68988;BME280;56038;46.080;11.116;2023-04-08T10:42:56;99185.38;;;20.67;27.03
68988;BME280;56038;46.080;11.116;2023-04-08T10:48:11;99170.78;;;21.03;24.75
68988;BME280;56038;46.080;11.116;2023-04-08T10:53:15;99164.72;;;20.70;25.96
68988;BME280;56038;46.080;11.116;2023-04-08T10:58:17;99159.16;;;20.73;26.08
68988;BME280;56038;46.080;11.116;2023-04-08T11:03:18;99154.94;;;21.72;25.67
68988;BME280;56038;46.080;11.116;2023-04-08T11:08:27;99149.00;;;22.28;24.31
68988;BME280;56038;46.080;11.116;2023-04-08T11:13:30;99146.41;;;22.65;24.88
68988;BME280;56038;46.080;11.116;2023-04-08T11:18:33;99131.44;;;21.77;22.79
68988;BME280;56038;46.080;11.116;2023-04-08T11:23:36;99115.63;;;21.85;21.25
68988;BME280;56038;46.080;11.116;2023-04-08T11:28:38;99120.03;;;22.91;22.02
68988;BME280;56038;46.080;11.116;2023-04-08T11:33:45;99105.78;;;24.00;20.32
68988;BME280;56038;46.080;11.116;2023-04-08T11:38:49;99084.97;;;24.73;19.85
68988;BME280;56038;46.080;11.116;2023-04-08T11:43:55;99082.22;;;24.91;18.81
68988;BME280;56038;46.080;11.116;2023-04-08T11:48:58;99080.00;;;24.78;20.41
68988;BME280;56038;46.080;11.116;2023-04-08T11:54:03;99079.59;;;24.22;20.32
68988;BME280;56038;46.080;11.116;2023-04-08T11:59:06;99070.16;;;24.09;21.47
68988;BME280;56038;46.080;11.116;2023-04-08T12:04:10;99070.03;;;23.93;21.43
68988;BME280;56038;46.080;11.116;2023-04-08T12:09:13;99068.66;;;23.89;21.33
68988;BME280;56038;46.080;11.116;2023-04-08T12:14:15;99063.09;;;22.92;22.08
68988;BME280;56038;46.080;11.116;2023-04-08T12:19:16;99069.44;;;21.67;23.27
68988;BME280;56038;46.080;11.116;2023-04-08T12:24:20;99066.69;;;20.48;25.07
68988;BME280;56038;46.080;11.116;2023-04-08T12:29:21;99074.06;;;19.70;26.91
68988;BME280;56038;46.080;11.116;2023-04-08T12:34:23;99069.50;;;18.51;28.90
68988;BME280;56038;46.080;11.116;2023-04-08T12:39:26;99070.63;;;18.24;29.57
68988;BME280;56038;46.080;11.116;2023-04-08T12:44:28;99077.88;;;17.87;29.73
68988;BME280;56038;46.080;11.116;2023-04-08T12:49:30;99071.78;;;16.90;31.71
68988;BME280;56038;46.080;11.116;2023-04-08T12:54:34;99096.69;;;16.60;32.27
68988;BME280;56038;46.080;11.116;2023-04-08T12:59:35;99099.81;;;16.14;32.93
68988;BME280;56038;46.080;11.116;2023-04-08T13:04:39;99108.34;;;16.18;32.21
68988;BME280;56038;46.080;11.116;2023-04-08T13:09:42;99110.13;;;15.78;33.00
68988;BME280;56038;46.080;11.116;2023-04-08T13:14:44;99104.81;;;15.79;32.02
68988;BME280;56038;46.080;11.116;2023-04-08T13:19:45;99102.81;;;15.83;32.67
68988;BME280;56038;46.080;11.116;2023-04-08T13:24:50;99126.88;;;15.77;33.18
68988;BME280;56038;46.080;11.116;2023-04-08T13:29:52;99129.09;;;15.97;32.59
68988;BME280;56038;46.080;11.116;2023-04-08T13:34:54;99134.56;;;16.07;32.42
68988;BME280;56038;46.080;11.116;2023-04-08T13:39:57;99136.81;;;16.13;32.74
68988;BME280;56038;46.080;11.116;2023-04-08T13:44:59;99136.88;;;15.99;33.26
68988;BME280;56038;46.080;11.116;2023-04-08T13:50:01;99138.22;;;15.92;33.40
68988;BME280;56038;46.080;11.116;2023-04-08T13:55:05;99149.34;;;15.41;35.81
68988;BME280;56038;46.080;11.116;2023-04-08T14:00:08;99152.94;;;15.40;35.41
68988;BME280;56038;46.080;11.116;2023-04-08T14:05:10;99152.47;;;15.62;35.46
68988;BME280;56038;46.080;11.116;2023-04-08T14:10:13;99140.31;;;15.45;35.76
68988;BME280;56038;46.080;11.116;2023-04-08T14:15:15;99163.44;;;15.40;35.58
68988;BME280;56038;46.080;11.116;2023-04-08T14:20:17;99159.88;;;15.41;35.73
68988;BME280;56038;46.080;11.116;2023-04-08T14:25:20;99164.50;;;15.38;35.09
68988;BME280;56038;46.080;11.116;2023-04-08T14:30:22;99170.59;;;15.38;35.27
68988;BME280;56038;46.080;11.116;2023-04-08T14:35:23;99184.41;;;15.42;35.18
68988;BME280;56038;46.080;11.116;2023-04-08T14:40:27;99184.81;;;15.21;35.98
68988;BME280;56038;46.080;11.116;2023-04-08T14:45:28;99187.66;;;15.04;35.84
68988;BME280;56038;46.080;11.116;2023-04-08T14:50:30;99201.84;;;15.02;35.96
68988;BME280;56038;46.080;11.116;2023-04-08T14:55:33;99227.75;;;14.93;36.12
68988;BME280;56038;46.080;11.116;2023-04-08T15:00:35;99247.03;;;15.08;35.67
68988;BME280;56038;46.080;11.116;2023-04-08T15:05:46;99260.19;;;15.22;35.39
68988;BME280;56038;46.080;11.116;2023-04-08T15:10:57;99260.06;;;15.10;37.47
68988;BME280;56038;46.080;11.116;2023-04-08T15:15:59;99260.44;;;14.89;37.60
68988;BME280;56038;46.080;11.116;2023-04-08T15:21:00;99269.53;;;14.84;37.90
68988;BME280;56038;46.080;11.116;2023-04-08T15:26:04;99275.16;;;14.48;39.68
68988;BME280;56038;46.080;11.116;2023-04-08T15:31:06;99280.31;;;14.33;39.72
68988;BME280;56038;46.080;11.116;2023-04-08T15:36:08;99275.50;;;14.26;41.58
68988;BME280;56038;46.080;11.116;2023-04-08T15:41:15;99270.94;;;14.14;42.62
68988;BME280;56038;46.080;11.116;2023-04-08T15:46:19;99266.72;;;13.95;42.72
68988;BME280;56038;46.080;11.116;2023-04-08T15:51:20;99286.78;;;13.81;44.32
68988;BME280;56038;46.080;11.116;2023-04-08T15:56:23;99275.94;;;13.87;44.31
68988;BME280;56038;46.080;11.116;2023-04-08T16:01:26;99278.63;;;13.69;46.56
68988;BME280;56038;46.080;11.116;2023-04-08T16:06:29;99290.59;;;13.59;47.95
68988;BME280;56038;46.080;11.116;2023-04-08T16:11:34;99285.81;;;13.50;47.75
68988;BME280;56038;46.080;11.116;2023-04-08T16:16:35;99296.53;;;13.30;48.71
68988;BME280;56038;46.080;11.116;2023-04-08T16:21:37;99303.00;;;13.23;49.18
68988;BME280;56038;46.080;11.116;2023-04-08T16:26:40;99315.09;;;12.90;51.17
68988;BME280;56038;46.080;11.116;2023-04-08T16:31:43;99321.97;;;12.76;51.60
68988;BME280;56038;46.080;11.116;2023-04-08T16:36:44;99317.94;;;12.51;51.31
68988;BME280;56038;46.080;11.116;2023-04-08T16:41:48;99320.81;;;12.28;52.96
68988;BME280;56038;46.080;11.116;2023-04-08T16:46:50;99332.31;;;12.07;53.70
68988;BME280;56038;46.080;11.116;2023-04-08T16:51:51;99331.19;;;11.93;54.19
68988;BME280;56038;46.080;11.116;2023-04-08T16:56:54;99351.56;;;12.06;53.91
68988;BME280;56038;46.080;11.116;2023-04-08T17:01:56;99363.31;;;12.16;51.76
68988;BME280;56038;46.080;11.116;2023-04-08T17:06:58;99368.94;;;12.25;52.70
68988;BME280;56038;46.080;11.116;2023-04-08T17:12:01;99370.94;;;12.20;52.48
68988;BME280;56038;46.080;11.116;2023-04-08T17:17:03;99373.78;;;12.16;51.34
68988;BME280;56038;46.080;11.116;2023-04-08T17:22:05;99390.47;;;12.13;51.30
68988;BME280;56038;46.080;11.116;2023-04-08T17:27:08;99391.31;;;12.14;52.88
68988;BME280;56038;46.080;11.116;2023-04-08T17:32:09;99388.53;;;11.98;53.42
68988;BME280;56038;46.080;11.116;2023-04-08T17:37:11;99389.22;;;12.03;51.50
68988;BME280;56038;46.080;11.116;2023-04-08T17:42:14;99397.31;;;11.97;52.04
68988;BME280;56038;46.080;11.116;2023-04-08T17:47:16;99407.81;;;11.77;54.54
68988;BME280;56038;46.080;11.116;2023-04-08T17:52:20;99407.63;;;11.61;55.28
68988;BME280;56038;46.080;11.116;2023-04-08T17:57:23;99407.63;;;11.61;55.07
68988;BME280;56038;46.080;11.116;2023-04-08T18:02:25;99417.03;;;11.65;53.60
68988;BME280;56038;46.080;11.116;2023-04-08T18:07:28;99411.31;;;11.57;55.13
68988;BME280;56038;46.080;11.116;2023-04-08T18:12:31;99416.94;;;11.48;55.87
68988;BME280;56038;46.080;11.116;2023-04-08T18:17:33;99435.72;;;11.37;55.42
68988;BME280;56038;46.080;11.116;2023-04-08T18:22:35;99439.69;;;11.46;55.80
68988;BME280;56038;46.080;11.116;2023-04-08T18:27:38;99452.81;;;11.24;57.08
68988;BME280;56038;46.080;11.116;2023-04-08T18:32:40;99451.44;;;11.15;56.25
68988;BME280;56038;46.080;11.116;2023-04-08T18:37:41;99451.19;;;11.21;57.43
68988;BME280;56038;46.080;11.116;2023-04-08T18:42:44;99453.81;;;11.21;56.09
68988;BME280;56038;46.080;11.116;2023-04-08T18:47:46;99473.41;;;11.31;55.70
68988;BME280;56038;46.080;11.116;2023-04-08T18:52:48;99478.72;;;11.30;56.30
68988;BME280;56038;46.080;11.116;2023-04-08T18:57:51;99498.72;;;11.31;54.91
68988;BME280;56038;46.080;11.116;2023-04-08T19:02:53;99508.25;;;11.32;54.84
68988;BME280;56038;46.080;11.116;2023-04-08T19:07:55;99519.91;;;11.25;55.80
68988;BME280;56038;46.080;11.116;2023-04-08T19:12:58;99529.06;;;11.13;55.71
68988;BME280;56038;46.080;11.116;2023-04-08T19:18:00;99546.03;;;11.03;56.48
68988;BME280;56038;46.080;11.116;2023-04-08T19:23:02;99548.47;;;11.07;55.53
68988;BME280;56038;46.080;11.116;2023-04-08T19:28:05;99554.69;;;11.05;56.52
68988;BME280;56038;46.080;11.116;2023-04-08T19:33:08;99565.28;;;11.00;56.65
68988;BME280;56038;46.080;11.116;2023-04-08T19:38:10;99573.88;;;11.04;56.59
68988;BME280;56038;46.080;11.116;2023-04-08T19:43:13;99567.63;;;11.08;56.18
68988;BME280;56038;46.080;11.116;2023-04-08T19:48:15;99578.09;;;11.08;56.93
68988;BME280;56038;46.080;11.116;2023-04-08T19:53:17;99584.75;;;10.93;57.90
68988;BME280;56038;46.080;11.116;2023-04-08T19:58:20;99583.19;;;10.88;58.25
68988;BME280;56038;46.080;11.116;2023-04-08T20:03:21;99595.72;;;10.79;60.94
68988;BME280;56038;46.080;11.116;2023-04-08T20:08:23;99589.25;;;10.90;59.60
68988;BME280;56038;46.080;11.116;2023-04-08T20:13:26;99594.16;;;10.97;59.09
68988;BME280;56038;46.080;11.116;2023-04-08T20:18:28;99596.00;;;10.95;60.83
68988;BME280;56038;46.080;11.116;2023-04-08T20:23:31;99597.25;;;10.85;61.35
68988;BME280;56038;46.080;11.116;2023-04-08T20:28:34;99598.53;;;10.97;59.61
68988;BME280;56038;46.080;11.116;2023-04-08T20:33:36;99606.47;;;11.17;58.79
68988;BME280;56038;46.080;11.116;2023-04-08T20:38:42;99619.19;;;11.26;58.61
68988;BME280;56038;46.080;11.116;2023-04-08T20:43:46;99613.50;;;11.38;57.96
68988;BME280;56038;46.080;11.116;2023-04-08T20:48:47;99610.97;;;11.35;57.75
68988;BME280;56038;46.080;11.116;2023-04-08T20:53:49;99618.72;;;11.38;57.53
68988;BME280;56038;46.080;11.116;2023-04-08T20:58:54;99614.69;;;11.30;58.98
68988;BME280;56038;46.080;11.116;2023-04-08T21:03:56;99605.50;;;11.20;58.82
68988;BME280;56038;46.080;11.116;2023-04-08T21:08:57;99603.84;;;11.17;59.81
68988;BME280;56038;46.080;11.116;2023-04-08T21:14:00;99609.78;;;10.99;60.78
68988;BME280;56038;46.080;11.116;2023-04-08T21:19:02;99605.25;;;10.57;63.55
68988;BME280;56038;46.080;11.116;2023-04-08T21:24:04;99611.38;;;10.56;64.61
68988;BME280;56038;46.080;11.116;2023-04-08T21:29:10;99623.03;;;10.47;64.92
68988;BME280;56038;46.080;11.116;2023-04-08T21:34:12;99626.41;;;10.26;65.85
68988;BME280;56038;46.080;11.116;2023-04-08T21:39:14;99628.59;;;10.37;63.29
68988;BME280;56038;46.080;11.116;2023-04-08T21:44:17;99636.97;;;10.46;62.59
68988;BME280;56038;46.080;11.116;2023-04-08T21:49:19;99634.69;;;10.37;64.94
68988;BME280;56038;46.080;11.116;2023-04-08T21:54:20;99636.72;;;10.29;64.07
68988;BME280;56038;46.080;11.116;2023-04-08T21:59:24;99639.22;;;10.32;64.52
68988;BME280;56038;46.080;11.116;2023-04-08T22:04:27;99648.47;;;10.41;62.75
68988;BME280;56038;46.080;11.116;2023-04-08T22:09:28;99645.53;;;10.27;65.36
68988;BME280;56038;46.080;11.116;2023-04-08T22:14:32;99640.25;;;10.28;64.05
68988;BME280;56038;46.080;11.116;2023-04-08T22:19:34;99640.63;;;10.42;62.84
68988;BME280;56038;46.080;11.116;2023-04-08T22:24:35;99638.75;;;10.46;62.87
68988;BME280;56038;46.080;11.116;2023-04-08T22:29:38;99639.38;;;10.53;62.57
68988;BME280;56038;46.080;11.116;2023-04-08T22:34:40;99644.59;;;10.53;62.19
68988;BME280;56038;46.080;11.116;2023-04-08T22:39:42;99642.88;;;10.52;62.07
68988;BME280;56038;46.080;11.116;2023-04-08T22:44:48;99640.94;;;10.57;61.73
68988;BME280;56038;46.080;11.116;2023-04-08T22:49:50;99641.88;;;10.31;64.39
68988;BME280;56038;46.080;11.116;2023-04-08T22:54:51;99641.03;;;10.04;67.00
68988;BME280;56038;46.080;11.116;2023-04-08T22:59:54;99616.13;;;9.94;67.70
68988;BME280;56038;46.080;11.116;2023-04-08T23:04:56;99618.56;;;10.00;65.32
68988;BME280;56038;46.080;11.116;2023-04-08T23:09:58;99621.75;;;10.08;64.64
68988;BME280;56038;46.080;11.116;2023-04-08T23:15:01;99618.56;;;10.00;64.87
68988;BME280;56038;46.080;11.116;2023-04-08T23:20:04;99629.84;;;9.74;67.81
68988;BME280;56038;46.080;11.116;2023-04-08T23:25:07;99635.97;;;9.73;66.98
68988;BME280;56038;46.080;11.116;2023-04-08T23:30:11;99631.56;;;9.75;67.26
68988;BME280;56038;46.080;11.116;2023-04-08T23:35:12;99631.88;;;9.66;67.88
68988;BME280;56038;46.080;11.116;2023-04-08T23:40:15;99628.31;;;9.68;67.84
68988;BME280;56038;46.080;11.116;2023-04-08T23:45:18;99641.41;;;9.67;66.67
68988;BME280;56038;46.080;11.116;2023-04-08T23:50:20;99634.31;;;9.70;66.07
68988;BME280;56038;46.080;11.116;2023-04-08T23:55:22;99626.28;;;9.76;67.83
